Time;durP1;ratioP1;P1;durP2;ratioP2;P2;SDS_P1;SDS_P2;PMS_P1;PMS_P2;Temp;Humidity;BMP_temperature;BMP_pressure;BME280_temperature;BME280_humidity;BME280_pressure;Samples;Min_cycle;Max_cycle;Signal;HPM_P1;HPM_P2
2022/09/07 00:00:31;;;;;;;3.37;2.10;;;16.90;99.90;;;;;;5119920;28;20202;-82
2022/09/07 00:02:57;;;;;;;9.50;2.93;;;;;;;;;;5120217;28;20184;-84
2022/09/07 00:05:22;;;;;;;5.60;3.07;;;16.90;99.90;;;;;;5121372;28;20179;-83
2022/09/07 00:07:48;;;;;;;7.43;3.03;;;;;;;;;;5124464;28;20222;-84
2022/09/07 00:10:15;;;;;;;5.73;2.73;;;16.70;99.90;;;;;;5124533;28;20175;-82
2022/09/07 00:12:40;;;;;;;5.83;2.70;;;16.70;99.90;;;;;;5121729;28;20232;-85
2022/09/07 00:15:08;;;;;;;4.80;2.87;;;16.70;99.90;;;;;;5118356;28;20176;-85
2022/09/07 00:17:34;;;;;;;7.13;2.97;;;16.70;99.90;;;;;;5118013;28;20202;-84
2022/09/07 00:20:01;;;;;;;5.47;2.57;;;;;;;;;;5119603;28;20179;-85
2022/09/07 00:22:26;;;;;;;5.20;2.77;;;16.60;99.90;;;;;;5120090;28;20184;-84
2022/09/07 00:24:52;;;;;;;3.80;3.00;;;;;;;;;;5117958;28;20184;-84
2022/09/07 00:27:18;;;;;;;4.93;2.37;;;;;;;;;;5118042;28;20214;-84
2022/09/07 00:29:44;;;;;;;6.83;2.97;;;;;;;;;;5119848;28;20235;-84
2022/09/07 00:32:10;;;;;;;9.97;2.53;;;;;;;;;;5118415;28;20200;-84
2022/09/07 00:34:36;;;;;;;3.83;2.63;;;;;;;;;;5117633;28;20637;-85
2022/09/07 00:37:03;;;;;;;4.07;2.57;;;;;;;;;;5119069;28;20625;-84
2022/09/07 00:39:29;;;;;;;5.53;3.07;;;;;;;;;;5118149;28;20179;-82
2022/09/07 00:41:55;;;;;;;7.97;2.83;;;16.60;99.90;;;;;;5117933;28;20211;-84
2022/09/07 00:44:42;;;;;;;7.00;2.67;;;16.60;99.90;;;;;;5118309;28;20179;-83
2022/09/07 00:47:26;;;;;;;4.00;2.90;;;16.60;99.90;;;;;;5117324;28;20206;-85
2022/09/07 00:49:59;;;;;;;7.20;2.70;;;16.70;99.90;;;;;;5119614;28;20227;-84
2022/09/07 00:52:27;;;;;;;5.40;2.90;;;16.40;99.90;;;;;;5118475;28;20195;-85
2022/09/07 00:54:57;;;;;;;12.50;4.07;;;16.60;99.90;;;;;;5123701;28;20180;-85
2022/09/07 00:57:23;;;;;;;7.07;2.90;;;16.70;99.90;;;;;;5119462;28;20169;-84
2022/09/07 00:59:51;;;;;;;8.20;2.57;;;16.70;99.90;;;;;;5117089;28;20186;-85
2022/09/07 01:02:18;;;;;;;7.50;3.00;;;16.50;99.90;;;;;;5117587;28;20192;-85
2022/09/07 01:04:48;;;;;;;6.93;2.83;;;16.80;99.90;;;;;;5117873;28;20172;-84
2022/09/07 01:07:13;;;;;;;6.73;2.90;;;16.80;99.90;;;;;;5117355;28;20222;-82
2022/09/07 01:09:41;;;;;;;6.57;2.80;;;;;;;;;;5117778;28;20172;-84
2022/09/07 01:12:07;;;;;;;6.00;2.53;;;;;;;;;;5116032;28;20219;-83
2022/09/07 01:14:42;;;;;;;8.17;3.27;;;16.90;99.90;;;;;;5117545;28;20167;-83
2022/09/07 01:17:32;;;;;;;6.10;2.77;;;16.80;99.90;;;;;;5115895;28;20191;-83
2022/09/07 01:20:17;;;;;;;6.63;3.30;;;17.00;99.90;;;;;;5117411;28;20163;-82
2022/09/07 01:23:19;;;;;;;3.97;2.80;;;17.10;99.90;;;;;;5115316;28;20167;-84
2022/09/07 01:26:04;;;;;;;10.13;2.90;;;17.10;99.90;;;;;;5115813;28;20167;-84
2022/09/07 01:28:33;;;;;;;7.33;2.97;;;17.00;99.90;;;;;;5117343;28;20243;-83
2022/09/07 01:31:18;;;;;;;5.10;2.60;;;17.20;99.90;;;;;;5115808;28;20189;-86
2022/09/07 01:34:05;;;;;;;7.17;2.83;;;17.30;99.90;;;;;;5116062;28;20225;-82
2022/09/07 01:36:33;;;;;;;6.67;2.50;;;17.40;99.90;;;;;;5115876;28;20167;-85
2022/09/07 01:39:02;;;;;;;5.90;2.43;;;17.20;99.90;;;;;;5116786;28;20167;-85
2022/09/07 01:41:40;;;;;;;7.63;2.73;;;17.30;99.90;;;;;;5115781;28;20199;-82
2022/09/07 01:44:17;;;;;;;7.87;2.93;;;17.30;99.90;;;;;;5115938;28;20176;-82
2022/09/07 01:46:46;;;;;;;5.63;2.93;;;17.30;99.90;;;;;;5116638;28;20211;-83
2022/09/07 01:49:35;;;;;;;6.33;2.67;;;17.40;99.90;;;;;;5115270;28;20173;-83
2022/09/07 01:52:08;;;;;;;6.10;2.33;;;17.40;99.90;;;;;;5108169;28;20209;-83
2022/09/07 01:54:41;;;;;;;7.50;3.03;;;17.40;99.90;;;;;;5115495;28;20623;-84
2022/09/07 01:57:13;;;;;;;5.60;2.37;;;17.40;99.90;;;;;;5116765;28;20167;-84
2022/09/07 01:59:49;;;;;;;5.20;2.40;;;17.40;99.90;;;;;;5115558;28;20223;-84
2022/09/07 02:02:25;;;;;;;6.53;2.10;;;17.30;99.90;;;;;;5115711;28;20209;-83
2022/09/07 02:05:02;;;;;;;3.77;2.30;;;17.40;99.90;;;;;;5115401;28;20167;-83
2022/09/07 02:07:56;;;;;;;4.27;2.00;;;17.30;99.90;;;;;;5116913;28;20216;-85
2022/09/07 02:10:31;;;;;;;5.43;1.83;;;17.30;99.90;;;;;;5116615;28;20274;-86
2022/09/07 02:13:11;;;;;;;6.07;2.60;;;17.20;99.90;;;;;;5116838;28;20511;-82
2022/09/07 02:15:40;;;;;;;3.87;2.03;;;17.30;99.90;;;;;;5116899;28;20184;-82
2022/09/07 02:18:08;;;;;;;3.37;1.73;;;17.20;99.90;;;;;;5116902;28;20172;-85
2022/09/07 02:20:38;;;;;;;6.13;1.93;;;17.20;99.90;;;;;;5117973;28;20192;-83
2022/09/07 02:23:12;;;;;;;3.47;2.20;;;17.20;99.90;;;;;;5115994;28;20266;-83
2022/09/07 02:25:46;;;;;;;4.57;2.00;;;17.20;99.90;;;;;;5115526;28;20171;-83
2022/09/07 02:28:17;;;;;;;4.07;2.00;;;17.20;99.90;;;;;;5114931;28;20199;-84
2022/09/07 02:30:44;;;;;;;7.30;2.20;;;;;;;;;;5116958;28;20202;-82
2022/09/07 02:33:10;;;;;;;4.40;2.20;;;;;;;;;;5118272;28;20168;-83
2022/09/07 02:35:36;;;;;;;3.77;2.00;;;17.20;99.90;;;;;;5119693;28;20181;-84
2022/09/07 02:38:05;;;;;;;2.27;1.80;;;17.20;99.90;;;;;;5120549;28;20176;-83
2022/09/07 02:40:31;;;;;;;7.23;2.20;;;17.20;99.90;;;;;;5119639;28;20202;-85
2022/09/07 02:43:01;;;;;;;5.53;1.80;;;17.20;99.90;;;;;;5120786;28;20191;-84
2022/09/07 02:45:32;;;;;;;4.10;1.70;;;17.20;99.90;;;;;;5119626;28;20183;-85
2022/09/07 02:48:27;;;;;;;5.37;1.83;;;17.20;99.90;;;;;;5120514;28;20191;-83
2022/09/07 02:51:12;;;;;;;4.77;2.00;;;17.10;99.90;;;;;;5120103;28;20729;-85
2022/09/07 02:53:53;;;;;;;4.43;2.30;;;17.20;99.90;;;;;;5120390;28;20507;-84
2022/09/07 02:56:48;;;;;;;3.73;2.07;;;17.00;99.90;;;;;;5121870;28;20160;-83
2022/09/07 02:59:38;;;;;;;5.60;1.80;;;17.10;99.90;;;;;;5110912;28;20187;-83
2022/09/07 03:02:18;;;;;;;4.70;1.70;;;17.10;99.90;;;;;;5123104;28;20247;-85
2022/09/07 03:04:55;;;;;;;3.50;1.67;;;17.10;99.90;;;;;;5124448;28;20680;-82
2022/09/07 03:07:28;;;;;;;6.47;1.60;;;17.10;99.90;;;;;;5126089;28;20194;-82
2022/09/07 03:09:57;;;;;;;2.67;1.60;;;17.10;99.90;;;;;;5119147;28;20172;-82
2022/09/07 03:12:23;;;;;;;5.53;1.87;;;17.10;99.90;;;;;;5119309;28;20188;-82
2022/09/07 03:14:49;;;;;;;9.07;2.13;;;;;;;;;;5120126;28;20163;-83
2022/09/07 03:17:15;;;;;;;7.80;1.73;;;17.30;99.90;;;;;;5119565;28;20550;-84
2022/09/07 03:19:41;;;;;;;4.20;2.00;;;;;;;;;;5120082;28;20183;-83
2022/09/07 03:22:06;;;;;;;4.90;1.90;;;17.10;99.90;;;;;;5118477;28;20196;-84
2022/09/07 03:24:32;;;;;;;4.50;2.10;;;17.10;99.90;;;;;;5118443;28;20187;-84
2022/09/07 03:26:59;;;;;;;2.70;1.50;;;;;;;;;;5118021;28;20210;-83
2022/09/07 03:29:25;;;;;;;9.43;1.90;;;17.10;99.90;;;;;;5118313;28;20176;-82
2022/09/07 03:31:50;;;;;;;2.83;1.53;;;17.10;99.90;;;;;;5118464;28;20203;-83
2022/09/07 03:34:17;;;;;;;5.23;2.10;;;;;;;;;;5119976;28;20160;-85
2022/09/07 03:36:43;;;;;;;4.93;1.53;;;;;;;;;;5119779;28;20694;-84
2022/09/07 03:39:11;;;;;;;3.83;1.60;;;17.10;99.90;;;;;;5119838;28;20195;-83
2022/09/07 03:41:37;;;;;;;4.57;1.53;;;17.20;99.90;;;;;;5119631;28;20192;-83
2022/09/07 03:44:04;;;;;;;5.40;2.10;;;17.10;99.90;;;;;;5118969;28;20624;-84
2022/09/07 03:46:30;;;;;;;3.13;1.63;;;17.10;99.90;;;;;;5118139;28;20664;-84
2022/09/07 03:48:56;;;;;;;4.90;2.00;;;;;;;;;;5119524;28;20165;-84
2022/09/07 03:51:22;;;;;;;4.90;1.40;;;17.40;99.90;;;;;;5117989;28;20193;-84
2022/09/07 03:53:50;;;;;;;4.77;1.80;;;;;;;;;;5119190;28;20229;-84
2022/09/07 03:56:23;;;;;;;2.60;1.70;;;17.00;99.90;;;;;;5118169;28;20179;-84
2022/09/07 03:58:49;;;;;;;3.90;2.03;;;17.00;99.90;;;;;;5118157;28;20184;-82
2022/09/07 04:01:18;;;;;;;2.80;1.87;;;17.20;99.90;;;;;;5118753;28;20191;-84
2022/09/07 04:03:44;;;;;;;3.03;1.97;;;17.20;99.90;;;;;;5119332;28;20241;-83
2022/09/07 04:06:11;;;;;;;3.57;2.00;;;17.10;99.90;;;;;;5117822;28;20243;-82
2022/09/07 04:08:39;;;;;;;2.17;1.70;;;17.10;99.90;;;;;;5117241;28;20172;-84
2022/09/07 04:11:07;;;;;;;4.43;2.13;;;17.30;99.90;;;;;;5117792;28;20266;-82
2022/09/07 04:13:35;;;;;;;3.20;1.73;;;17.00;99.90;;;;;;5119022;28;20163;-81
2022/09/07 04:16:10;;;;;;;4.40;1.80;;;17.00;99.90;;;;;;5117581;28;20248;-83
2022/09/07 04:18:36;;;;;;;2.37;1.70;;;16.70;99.90;;;;;;5118935;28;20183;-83
2022/09/07 04:21:02;;;;;;;2.23;1.80;;;16.90;99.90;;;;;;5117108;28;20187;-83
2022/09/07 04:23:28;;;;;;;5.63;1.77;;;;;;;;;;5118967;28;20168;-84
2022/09/07 04:25:53;;;;;;;1.77;1.67;;;16.80;99.90;;;;;;5119190;28;20255;-83
2022/09/07 05:28:48;;;;;;;3.27;1.80;;;16.80;99.90;;;;;;5134703;27;20275;-84
2022/09/07 05:31:16;;;;;;;4.73;2.20;;;16.90;99.90;;;;;;5122688;28;20191;-85
2022/09/07 05:33:47;;;;;;;5.80;2.10;;;16.80;99.90;;;;;;5133565;27;20212;-84
2022/09/07 05:36:13;;;;;;;3.73;2.03;;;16.90;99.90;;;;;;5132228;28;20171;-82
2022/09/07 05:38:39;;;;;;;3.20;2.07;;;;;;;;;;5133127;27;20236;-82
2022/09/07 05:41:16;;;;;;;4.00;2.30;;;17.00;99.90;;;;;;5132713;28;20194;-83
2022/09/07 05:43:41;;;;;;;2.73;1.97;;;17.00;99.90;;;;;;5133130;27;20159;-83
2022/09/07 05:46:08;;;;;;;5.10;2.07;;;17.00;99.90;;;;;;5131622;28;20674;-83
2022/09/07 05:48:34;;;;;;;3.33;1.83;;;17.30;99.90;;;;;;5133634;28;20743;-83
2022/09/07 05:51:00;;;;;;;3.90;1.87;;;17.20;99.90;;;;;;5133643;28;20290;-85
2022/09/07 06:02:01;;;;;;;2.93;1.97;;;17.40;99.90;;;;;;5160777;27;20287;-83
2022/09/07 06:04:27;;;;;;;6.80;2.43;;;17.40;99.90;;;;;;5162777;27;20174;-82
2022/09/07 06:06:53;;;;;;;3.73;2.30;;;;;;;;;;5159183;27;20253;-84
2022/09/07 06:09:19;;;;;;;7.23;2.03;;;17.60;99.90;;;;;;5153621;27;20581;-82
2022/09/07 06:11:45;;;;;;;4.87;2.10;;;;;;;;;;5154328;27;20194;-85
2022/09/07 06:14:11;;;;;;;2.93;1.90;;;17.60;99.90;;;;;;5155826;27;20171;-82
2022/09/07 06:16:36;;;;;;;3.60;2.20;;;17.60;99.90;;;;;;5155949;27;20181;-82
2022/09/07 06:19:07;;;;;;;5.27;2.17;;;17.50;99.90;;;;;;5156028;27;20229;-83
2022/09/07 06:21:37;;;;;;;10.13;2.37;;;17.60;99.90;;;;;;5154357;27;20211;-83
2022/09/07 06:24:04;;;;;;;3.80;2.03;;;17.50;99.90;;;;;;5155534;27;20170;-83
2022/09/07 06:30:06;;;;;;;5.60;2.13;;;17.90;99.90;;;;;;5136724;27;20271;-85
2022/09/07 06:32:35;;;;;;;5.37;2.43;;;17.90;99.90;;;;;;5135601;27;20191;-86
2022/09/07 06:35:01;;;;;;;7.30;2.40;;;17.90;99.90;;;;;;5135303;28;20632;-83
2022/09/07 06:37:27;;;;;;;9.17;2.57;;;;;;;;;;5133634;28;20190;-85
2022/09/07 06:39:53;;;;;;;6.60;1.93;;;18.10;99.90;;;;;;5135027;28;20224;-83
2022/09/07 06:42:19;;;;;;;2.27;1.70;;;;;;;;;;5134482;27;20195;-82
2022/09/07 06:44:44;;;;;;;7.13;2.57;;;18.30;99.90;;;;;;5133969;28;20553;-81
2022/09/07 06:47:10;;;;;;;5.53;2.40;;;;;;;;;;5133147;28;20184;-82
2022/09/07 06:49:37;;;;;;;5.33;1.80;;;;;;;;;;5134749;28;20203;-84
2022/09/07 06:52:02;;;;;;;3.13;1.93;;;18.50;99.90;;;;;;5134999;28;20230;-83
2022/09/07 06:54:28;;;;;;;2.33;1.73;;;18.50;99.90;;;;;;5133856;28;20202;-83
2022/09/07 06:56:54;;;;;;;7.07;2.20;;;18.50;99.90;;;;;;5138000;27;20179;-83
2022/09/07 06:59:20;;;;;;;5.87;2.30;;;;;;;;;;5136293;28;20175;-84
2022/09/07 07:01:46;;;;;;;8.13;2.30;;;18.70;99.90;;;;;;5133602;28;20228;-84
2022/09/07 07:04:12;;;;;;;4.13;1.77;;;;;;;;;;5135559;27;20183;-83
2022/09/07 07:06:38;;;;;;;3.37;2.07;;;18.70;99.90;;;;;;5134299;28;20172;-84
2022/09/07 07:09:06;;;;;;;5.03;1.80;;;18.70;99.90;;;;;;5135579;27;20204;-84
2022/09/07 07:11:35;;;;;;;6.33;1.90;;;18.80;99.90;;;;;;5134295;27;20197;-84
2022/09/07 07:14:00;;;;;;;3.30;1.87;;;18.80;99.90;;;;;;5132780;28;20176;-83
2022/09/07 07:16:26;;;;;;;3.70;2.00;;;;;;;;;;5133545;27;20182;-83
2022/09/07 07:18:56;;;;;;;6.10;2.60;;;18.90;99.90;;;;;;5132310;28;20244;-82
2022/09/07 07:21:21;;;;;;;4.67;2.43;;;18.90;99.90;;;;;;5134781;28;20555;-84
2022/09/07 07:23:52;;;;;;;6.37;2.13;;;18.90;99.90;;;;;;5135248;27;20179;-84
2022/09/07 07:26:21;;;;;;;8.53;1.93;;;19.00;99.90;;;;;;5134339;28;20186;-84
2022/09/07 07:28:50;;;;;;;3.17;2.10;;;19.10;99.90;;;;;;5135055;27;20213;-85
2022/09/07 07:31:21;;;;;;;3.40;1.60;;;19.20;99.90;;;;;;5133135;28;20236;-84
2022/09/07 07:33:48;;;;;;;3.23;1.50;;;19.20;99.90;;;;;;5133012;28;20173;-84
2022/09/07 07:36:22;;;;;;;6.20;1.90;;;19.30;99.90;;;;;;5133057;28;20177;-84
2022/09/07 07:38:50;;;;;;;3.60;1.27;;;19.30;99.90;;;;;;5132569;28;20169;-84
2022/09/07 07:41:18;;;;;;;1.60;1.10;;;19.40;99.90;;;;;;5120262;28;20199;-84
2022/09/07 07:43:44;;;;;;;6.13;2.00;;;19.50;99.90;;;;;;5118895;28;20181;-83
2022/09/07 07:46:15;;;;;;;1.80;1.40;;;19.50;99.90;;;;;;5119739;28;20578;-84
2022/09/07 07:48:41;;;;;;;2.20;1.30;;;19.60;99.90;;;;;;5120919;28;20219;-84
2022/09/07 07:51:12;;;;;;;3.73;1.27;;;19.60;99.90;;;;;;5120270;28;20192;-82
2022/09/07 07:53:39;;;;;;;2.23;1.10;;;19.70;99.90;;;;;;5119232;28;20200;-83
2022/09/07 07:56:06;;;;;;;1.73;1.23;;;19.70;99.90;;;;;;5120538;28;20174;-85
2022/09/07 07:58:34;;;;;;;2.17;1.20;;;19.70;99.90;;;;;;5118494;28;20186;-84
2022/09/07 08:01:02;;;;;;;1.60;1.20;;;19.80;99.90;;;;;;5119994;28;20193;-84
2022/09/07 08:03:29;;;;;;;1.90;1.60;;;19.80;99.90;;;;;;5119233;28;20192;-84
2022/09/07 08:05:55;;;;;;;4.00;1.33;;;19.70;99.90;;;;;;5121466;28;20544;-84
2022/09/07 08:08:22;;;;;;;4.00;1.43;;;19.70;99.90;;;;;;5120853;28;20208;-82
2022/09/07 08:10:48;;;;;;;3.10;1.30;;;19.70;99.90;;;;;;5119913;28;20554;-82
2022/09/07 08:13:15;;;;;;;5.67;1.40;;;19.60;99.90;;;;;;5120171;28;20181;-85
2022/09/07 08:15:44;;;;;;;2.40;1.07;;;19.60;99.90;;;;;;5120320;28;20182;-83
2022/09/07 08:18:14;;;;;;;4.37;1.53;;;19.60;99.90;;;;;;5120362;27;20173;-83
2022/09/07 08:20:40;;;;;;;2.70;1.17;;;19.60;99.90;;;;;;5120152;27;20219;-83
2022/09/07 08:23:07;;;;;;;4.50;1.23;;;19.60;99.90;;;;;;5119623;28;20181;-83
2022/09/07 08:25:35;;;;;;;1.47;1.00;;;19.60;99.90;;;;;;5121987;28;20181;-83
2022/09/07 08:28:01;;;;;;;4.53;1.30;;;19.50;99.90;;;;;;5119653;28;20210;-82
2022/09/07 08:30:28;;;;;;;6.53;1.10;;;19.50;99.90;;;;;;5122115;28;20259;-83
2022/09/07 08:32:53;;;;;;;2.57;1.20;;;19.50;99.90;;;;;;5122458;28;20198;-83
2022/09/07 08:35:19;;;;;;;2.67;1.30;;;19.50;99.90;;;;;;5120922;28;20185;-83
2022/09/07 08:37:45;;;;;;;5.40;1.20;;;19.60;99.90;;;;;;5122036;28;20173;-83
2022/09/07 08:40:16;;;;;;;3.77;1.23;;;19.80;99.90;;;;;;5122245;28;20264;-83
2022/09/07 08:42:41;;;;;;;2.50;1.10;;;19.80;99.90;;;;;;5121067;28;20182;-83
2022/09/07 08:45:24;;;;;;;1.90;1.17;;;19.90;99.90;;;;;;5122840;28;20178;-83
2022/09/07 08:47:51;;;;;;;2.70;1.10;;;20.00;99.90;;;;;;5121046;28;20516;-84
2022/09/07 08:50:29;;;;;;;2.50;1.23;;;20.20;99.90;;;;;;5121778;28;20178;-83
2022/09/07 08:53:06;;;;;;;5.50;1.30;;;20.20;99.90;;;;;;5123284;28;20159;-84
2022/09/07 08:55:54;;;;;;;4.27;1.13;;;20.40;99.90;;;;;;5124378;27;20159;-82
2022/09/07 08:58:43;;;;;;;3.10;1.40;;;20.60;99.90;;;;;;5120760;28;20196;-81
2022/09/07 09:01:13;;;;;;;2.97;1.20;;;21.70;99.90;;;;;;5131825;28;20202;-82
2022/09/07 09:03:40;;;;;;;4.23;1.30;;;21.80;99.90;;;;;;5126426;28;20175;-83
2022/09/07 09:06:36;;;;;;;3.00;1.37;;;22.00;99.90;;;;;;5115931;28;20176;-82
2022/09/07 09:09:29;;;;;;;2.93;1.30;;;22.30;99.90;;;;;;5118680;28;20207;-82
2022/09/07 09:12:16;;;;;;;2.50;1.10;;;22.40;99.90;;;;;;5118752;28;20232;-84
2022/09/07 09:15:06;;;;;;;4.90;1.30;;;22.40;99.90;;;;;;5119095;28;20199;-82
2022/09/07 09:17:34;;;;;;;2.07;1.37;;;22.40;99.90;;;;;;5118207;28;20163;-82
2022/09/07 09:20:15;;;;;;;4.37;1.37;;;22.30;99.90;;;;;;5120103;28;20179;-82
2022/09/07 09:22:41;;;;;;;6.00;1.20;;;22.20;99.90;;;;;;5117592;28;20613;-81
2022/09/07 09:25:38;;;;;;;3.23;1.23;;;22.50;99.90;;;;;;5117089;28;20656;-81
2022/09/07 09:28:04;;;;;;;4.50;1.50;;;22.70;99.90;;;;;;5102786;28;20275;-83
2022/09/07 09:30:30;;;;;;;2.73;1.20;;;22.90;99.90;;;;;;5115382;28;20204;-82
2022/09/07 09:33:31;;;;;;;2.80;1.10;;;23.00;99.90;;;;;;5117127;28;20250;-82
2022/09/07 09:35:59;;;;;;;3.20;1.00;;;23.20;99.90;;;;;;5074255;28;20185;-80
2022/09/07 09:38:42;;;;;;;1.80;1.20;;;23.30;99.90;;;;;;5103897;28;20229;-83
2022/09/07 09:41:12;;;;;;;2.57;0.90;;;23.30;99.90;;;;;;5115902;28;20224;-82
2022/09/07 09:43:55;;;;;;;2.73;1.10;;;23.20;99.90;;;;;;5117852;28;20679;-81
2022/09/07 09:46:28;;;;;;;3.20;1.40;;;23.10;99.90;;;;;;5117191;28;20178;-81
2022/09/07 09:48:59;;;;;;;5.33;1.47;;;23.10;99.90;;;;;;5117148;28;20226;-82
2022/09/07 09:51:28;;;;;;;3.73;1.83;;;23.10;99.90;;;;;;5116203;28;20201;-83
2022/09/07 09:54:25;;;;;;;4.80;2.03;;;23.10;99.90;;;;;;5116931;28;20672;-82
2022/09/07 09:56:51;;;;;;;8.73;1.23;;;23.20;99.90;;;;;;5106080;28;20280;-82
2022/09/07 09:59:17;;;;;;;2.93;1.70;;;23.20;99.90;;;;;;5115554;28;20671;-83
2022/09/07 10:01:45;;;;;;;3.03;1.50;;;23.30;99.90;;;;;;5115993;28;20220;-82
2022/09/07 10:04:18;;;;;;;4.13;1.40;;;23.30;99.90;;;;;;5115594;28;20176;-83
2022/09/07 10:06:56;;;;;;;3.83;1.70;;;23.20;99.90;;;;;;5117206;28;20184;-83
2022/09/07 10:09:36;;;;;;;3.27;1.30;;;23.00;99.90;;;;;;5116299;27;20198;-83
2022/09/07 10:12:03;;;;;;;3.37;1.23;;;22.70;99.90;;;;;;5116553;28;20194;-82
2022/09/07 10:14:35;;;;;;;6.40;1.30;;;22.70;99.90;;;;;;5116992;28;20164;-82
2022/09/07 10:17:17;;;;;;;3.50;1.50;;;22.60;99.90;;;;;;5117741;28;20166;-83
2022/09/07 10:19:43;;;;;;;4.17;1.60;;;22.80;99.90;;;;;;5118237;28;20209;-83
2022/09/07 10:22:35;;;;;;;3.23;1.43;;;23.20;99.90;;;;;;5118036;28;20212;-82
2022/09/07 10:25:03;;;;;;;2.20;1.47;;;23.60;99.90;;;;;;5116415;28;20172;-83
2022/09/07 10:27:35;;;;;;;4.83;1.70;;;24.40;99.90;;;;;;5118207;28;20663;-84
2022/09/07 10:30:08;;;;;;;3.37;1.30;;;25.40;99.90;;;;;;5118055;28;20704;-84
2022/09/07 10:32:42;;;;;;;2.80;1.40;;;25.90;99.90;;;;;;5118708;28;20158;-83
2022/09/07 10:35:19;;;;;;;2.43;1.07;;;26.30;99.90;;;;;;5117832;28;20157;-83
2022/09/07 10:38:06;;;;;;;5.43;1.33;;;26.40;99.90;;;;;;5120380;28;20635;-82
2022/09/07 10:40:33;;;;;;;4.30;1.30;;;26.60;99.90;;;;;;5119031;28;20188;-83
2022/09/07 10:43:11;;;;;;;5.53;1.50;;;26.90;99.90;;;;;;5120493;28;20171;-83
2022/09/07 10:45:57;;;;;;;3.50;1.60;;;27.20;99.90;;;;;;5120280;28;20577;-84
2022/09/07 10:48:46;;;;;;;3.87;1.43;;;27.50;99.90;;;;;;5118419;28;20271;-83
2022/09/07 10:51:40;;;;;;;4.60;1.27;;;27.70;99.90;;;;;;5120164;28;20572;-84
2022/09/07 10:54:15;;;;;;;3.57;1.50;;;27.40;99.90;;;;;;5111289;28;20180;-82
2022/09/07 10:56:59;;;;;;;3.37;1.47;;;27.70;99.90;;;;;;5119736;28;20221;-84
2022/09/07 10:59:43;;;;;;;4.30;1.40;;;28.40;99.90;;;;;;5119104;28;20210;-82
2022/09/07 11:02:47;;;;;;;2.87;1.30;;;29.00;99.90;;;;;;5118527;28;20710;-85
2022/09/07 11:05:22;;;;;;;2.87;1.40;;;29.00;99.90;;;;;;5118362;28;20220;-83
2022/09/07 11:08:33;;;;;;;3.13;1.40;;;29.30;99.90;;;;;;5119885;28;20199;-83
2022/09/07 11:11:13;;;;;;;5.93;1.50;;;29.50;99.90;;;;;;5065056;28;20201;-82
2022/09/07 11:13:42;;;;;;;2.70;1.47;;;29.50;99.90;;;;;;5119366;28;20255;-83
2022/09/07 11:16:14;;;;;;;1.80;1.37;;;29.50;99.90;;;;;;5122241;28;20204;-83
2022/09/07 11:18:55;;;;;;;2.67;1.40;;;29.60;99.90;;;;;;5124500;28;20166;-83
2022/09/07 11:21:26;;;;;;;6.60;2.00;;;29.20;99.90;;;;;;5123222;28;20206;-85
2022/09/07 11:24:02;;;;;;;3.63;1.40;;;28.90;99.90;;;;;;5120582;28;20178;-83
2022/09/07 11:26:36;;;;;;;4.83;1.40;;;28.50;99.90;;;;;;5120634;28;20178;-84
2022/09/07 11:29:32;;;;;;;4.60;1.70;;;28.60;99.90;;;;;;5120352;28;20226;-84
2022/09/07 11:32:30;;;;;;;3.00;1.70;;;29.00;99.90;;;;;;5123194;28;20195;-84
2022/09/07 11:35:37;;;;;;;2.77;1.53;;;29.70;99.90;;;;;;5105828;28;20191;-82
2022/09/07 11:38:12;;;;;;;2.93;1.70;;;30.50;99.90;;;;;;5105713;28;20191;-82
2022/09/07 11:40:59;;;;;;;2.43;1.50;;;30.50;99.90;;;;;;5123373;28;20245;-84
2022/09/07 11:43:33;;;;;;;4.83;1.80;;;30.80;99.90;;;;;;5123876;28;20162;-85
2022/09/07 11:46:11;;;;;;;7.10;1.70;;;30.70;99.90;;;;;;5123344;28;20173;-82
2022/09/07 11:48:51;;;;;;;4.20;1.50;;;30.20;99.90;;;;;;5123706;28;20196;-82
2022/09/07 11:51:22;;;;;;;6.63;2.67;;;30.50;99.90;;;;;;5124190;28;20196;-83
2022/09/07 11:53:55;;;;;;;4.73;1.63;;;29.60;99.90;;;;;;5125733;28;20255;-84
2022/09/07 11:56:32;;;;;;;4.57;1.80;;;29.80;99.90;;;;;;5124520;28;20176;-84
2022/09/07 11:59:21;;;;;;;4.60;1.70;;;30.50;99.90;;;;;;5122681;28;20201;-82
2022/09/07 12:02:03;;;;;;;3.30;1.50;;;30.60;99.90;;;;;;5123775;28;20670;-83
2022/09/07 12:04:50;;;;;;;2.53;1.40;;;30.50;99.90;;;;;;5124100;28;20175;-85
2022/09/07 12:07:35;;;;;;;2.87;1.67;;;30.80;98.70;;;;;;5123873;28;20149;-82
2022/09/07 12:10:00;;;;;;;1.50;1.40;;;30.70;98.40;;;;;;5123630;28;20190;-86
2022/09/07 12:12:50;;;;;;;5.60;1.67;;;30.90;99.90;;;;;;5123013;28;20201;-83
2022/09/07 12:15:42;;;;;;;2.40;1.33;;;31.30;99.90;;;;;;5122067;28;20565;-82
2022/09/07 12:18:49;;;;;;;3.93;1.77;;;31.50;98.60;;;;;;5122093;28;20262;-84
2022/09/07 12:21:51;;;;;;;6.67;1.63;;;31.60;96.10;;;;;;5120472;28;20215;-83
2022/09/07 12:24:35;;;;;;;3.00;1.50;;;31.10;97.40;;;;;;5120928;28;20164;-86
2022/09/07 12:27:27;;;;;;;2.93;1.37;;;31.10;97.30;;;;;;5119185;28;20172;-85
2022/09/07 12:30:02;;;;;;;4.13;1.30;;;31.30;94.20;;;;;;5089604;28;20200;-85
2022/09/07 12:32:46;;;;;;;2.60;1.40;;;31.50;95.70;;;;;;5118175;27;20253;-81
2022/09/07 12:35:27;;;;;;;4.83;1.63;;;31.60;98.10;;;;;;5117296;28;20214;-84
2022/09/07 12:37:57;;;;;;;2.30;1.47;;;31.50;92.90;;;;;;5117173;28;20613;-83
2022/09/07 12:40:36;;;;;;;4.20;1.53;;;30.80;90.30;;;;;;5118522;28;20169;-84
2022/09/07 12:43:13;;;;;;;1.77;1.40;;;30.60;95.20;;;;;;5117677;28;20241;-81
2022/09/07 12:45:39;;;;;;;4.17;1.60;;;30.40;93.50;;;;;;5117267;28;20173;-82
2022/09/07 12:48:14;;;;;;;3.57;1.47;;;30.30;91.80;;;;;;5117908;28;20166;-85
2022/09/07 12:50:54;;;;;;;1.93;1.23;;;31.10;96.30;;;;;;5117574;28;20277;-82
2022/09/07 12:53:20;;;;;;;3.27;1.53;;;;;;;;;;5117428;28;20166;-84
2022/09/07 12:55:46;;;;;;;3.40;1.50;;;;;;;;;;5116580;28;20208;-84
2022/09/07 12:58:44;;;;;;;3.97;1.73;;;32.00;93.50;;;;;;5118072;28;20654;-84
2022/09/07 13:01:35;;;;;;;3.47;1.30;;;32.20;91.20;;;;;;5099899;28;20317;-84
2022/09/07 13:04:19;;;;;;;3.23;1.40;;;32.40;91.80;;;;;;5120941;28;20645;-82
2022/09/07 13:07:23;;;;;;;2.00;1.50;;;32.20;90.80;;;;;;5125622;28;20172;-81
2022/09/07 13:09:57;;;;;;;4.80;1.60;;;32.40;93.00;;;;;;5103645;28;20316;-81
2022/09/07 13:12:37;;;;;;;3.27;1.30;;;32.40;87.40;;;;;;5119209;28;20196;-83
2022/09/07 13:15:04;;;;;;;1.73;1.60;;;32.70;91.40;;;;;;5116987;28;20188;-81
2022/09/07 13:17:37;;;;;;;2.73;1.50;;;32.90;92.70;;;;;;5117397;27;20253;-83
2022/09/07 13:20:05;;;;;;;2.57;1.30;;;;;;;;;;5117943;28;20194;-83
2022/09/07 13:22:31;;;;;;;2.40;1.53;;;32.10;91.40;;;;;;5117680;28;20181;-83
2022/09/07 13:24:58;;;;;;;3.97;1.50;;;32.10;93.10;;;;;;5117074;28;20177;-81
2022/09/07 13:27:45;;;;;;;2.37;1.47;;;32.20;91.10;;;;;;5118400;28;20170;-85
2022/09/07 13:30:14;;;;;;;1.77;1.43;;;33.00;94.40;;;;;;5116492;28;20191;-82
2022/09/07 13:32:40;;;;;;;4.87;1.63;;;32.90;95.30;;;;;;5118040;28;20228;-85
2022/09/07 13:35:18;;;;;;;4.20;1.60;;;32.80;90.50;;;;;;5118636;28;20179;-82
2022/09/07 13:37:47;;;;;;;3.47;2.27;;;32.90;93.10;;;;;;5117020;28;20720;-83
2022/09/07 13:40:17;;;;;;;5.20;1.80;;;32.70;92.10;;;;;;5117305;28;20236;-85
2022/09/07 13:42:44;;;;;;;4.53;1.90;;;32.70;92.80;;;;;;5116072;28;20169;-83
2022/09/07 13:45:48;;;;;;;3.43;1.50;;;32.60;88.60;;;;;;5117539;28;20199;-84
2022/09/07 13:48:29;;;;;;;3.67;1.70;;;32.00;88.20;;;;;;5115553;28;20569;-85
2022/09/07 13:51:09;;;;;;;5.27;1.90;;;31.30;92.90;;;;;;5116500;28;20208;-84
2022/09/07 13:53:52;;;;;;;2.50;1.53;;;31.50;90.50;;;;;;5115688;28;20178;-81
2022/09/07 13:56:38;;;;;;;4.50;2.00;;;31.20;90.90;;;;;;5117342;28;20216;-81
2022/09/07 13:59:22;;;;;;;4.40;1.70;;;30.70;92.00;;;;;;5117611;28;20220;-83
2022/09/07 14:01:49;;;;;;;2.50;1.27;;;30.00;92.50;;;;;;5117198;28;20279;-83
2022/09/07 14:04:26;;;;;;;4.33;1.70;;;29.30;90.60;;;;;;5117188;28;20254;-84
2022/09/07 14:07:11;;;;;;;5.30;1.43;;;28.40;90.90;;;;;;5117740;28;20215;-83
2022/09/07 14:09:37;;;;;;;2.57;1.47;;;28.20;92.90;;;;;;5117645;28;20164;-82
2022/09/07 14:12:12;;;;;;;2.33;1.27;;;28.50;92.80;;;;;;5116242;28;20280;-83
2022/09/07 14:14:38;;;;;;;5.83;1.50;;;28.80;92.80;;;;;;5117812;28;20674;-81
2022/09/07 14:17:07;;;;;;;4.90;1.40;;;28.50;93.80;;;;;;5115706;28;20180;-84
2022/09/07 14:19:36;;;;;;;4.00;1.43;;;28.20;94.20;;;;;;5117405;28;20198;-82
2022/09/07 14:22:24;;;;;;;4.10;1.40;;;28.00;95.10;;;;;;5115975;28;20278;-83
2022/09/07 14:24:58;;;;;;;4.23;1.60;;;28.10;94.70;;;;;;5118596;28;20186;-82
2022/09/07 14:27:31;;;;;;;2.83;1.60;;;28.30;95.50;;;;;;5117941;28;20243;-82
2022/09/07 14:30:19;;;;;;;4.47;1.67;;;29.90;95.40;;;;;;5116919;28;20190;-82
2022/09/07 14:32:47;;;;;;;5.93;1.70;;;29.90;96.10;;;;;;5111412;28;20551;-83
2022/09/07 14:35:17;;;;;;;3.67;1.80;;;30.40;92.90;;;;;;5118681;28;20188;-85
2022/09/07 14:37:44;;;;;;;4.80;1.50;;;31.00;93.10;;;;;;5119463;28;20261;-81
2022/09/07 14:40:19;;;;;;;6.67;1.40;;;31.30;90.10;;;;;;5119956;28;20214;-82
2022/09/07 14:42:47;;;;;;;3.73;1.80;;;31.20;91.20;;;;;;5122216;28;20169;-82